Jenkins Bridge, Virginia
Current Conditions -  °F | °C
As of 11:54 AM on Monday 22 Dec 2014 (Local Time) from KWAL Reporting Station
Light Rain Light Rain  
Wind Chill: 36°   Ceiling: 3400
Heat Index: 43°   Visibility: 8mi
Dew Point: 41°   Wind: 14mph
Humidity: 93%   Direction: 70°ENE
Pressure: 30.19"   Gusts: NA
Location:  37.92°N, 75.63°W
Report Text: KWAL 221654Z AUTO 07012KT 8SM -RA OVC034 06/05 A3019 RMK AO2 SLP220 P0003 T00610050
Loading
Personal Weather Stations






























Interactive Weather Map New forecast layout! Learn more

10-Day Weather Forecast

Advertisements
Track Severe Weather on mobile